Onley, Virginia
Current Conditions -  °F | °C
As of 7:35 PM on Monday 24 Nov 2014 (Local Time) from KMFV Reporting Station
Scattered Clouds Scattered Clouds  
Wind Chill: 63°   Ceiling: Unl
Heat Index: 63°   Visibility: 10mi
Dew Point: 59°   Wind: 8mph
Humidity: 88%   Direction: 190°S
Pressure: 29.8"   Gusts: NA
Location:  37.69°N, 75.72°W
Report Text: KMFV 250035Z AUTO 19007KT 10SM SCT110 17/15 A2980 RMK AO2 LTG DSNT W
Loading
Personal Weather Stations






























Interactive Weather Map New forecast layout! Learn more

10-Day Weather Forecast

Advertisements
Track Severe Weather on mobile